Time;durP1;ratioP1;P1;durP2;ratioP2;P2;SDS_P1;SDS_P2;PMS_P1;PMS_P2;Temp;Humidity;BMP_temperature;BMP_pressure;BME280_temperature;BME280_humidity;BME280_pressure;Samples;Min_cycle;Max_cycle;Signal;HPM_P1;HPM_P2
2022/11/09 00:00:34;;;;;;;0.10;0.10;;;16.30;93.10;;;;;;4224913;28;20051;-61
2022/11/09 00:03:16;;;;;;;0.00;0.00;;;16.30;93.00;;;;;;4253667;27;20504;-61
2022/11/09 00:05:58;;;;;;;0.57;0.57;;;16.30;93.10;;;;;;4241433;27;20497;-60
2022/11/09 00:08:40;;;;;;;;;;;16.30;93.10;;;;;;4225326;28;20050;-60
2022/11/09 00:11:21;;;;;;;0.20;0.20;;;16.30;93.10;;;;;;4241450;28;20059;-60
2022/11/09 00:14:03;;;;;;;0.00;0.00;;;16.30;93.10;;;;;;4250180;27;20058;-60
2022/11/09 00:16:44;;;;;;;0.00;0.00;;;16.30;93.10;;;;;;4244305;27;20070;-60
2022/11/09 00:19:26;;;;;;;0.00;0.00;;;16.30;93.20;;;;;;4235298;27;20393;-60
2022/11/09 00:22:07;;;;;;;0.00;0.00;;;16.30;93.20;;;;;;4241537;28;20115;-60
2022/11/09 00:24:48;;;;;;;0.00;0.00;;;16.20;93.10;;;;;;4256358;27;20057;-60
2022/11/09 00:27:29;;;;;;;0.00;0.00;;;16.30;93.20;;;;;;4228612;28;20192;-61
2022/11/09 00:30:11;;;;;;;0.00;0.00;;;16.20;93.20;;;;;;4242056;28;20191;-60
2022/11/09 00:32:52;;;;;;;0.00;0.00;;;16.20;93.20;;;;;;4216649;27;20429;-61
2022/11/09 00:35:37;;;;;;;0.00;0.00;;;16.20;93.20;;;;;;4258726;27;20053;-61
2022/11/09 00:38:17;;;;;;;0.10;0.10;;;16.20;93.20;;;;;;4245602;27;20054;-60
2022/11/09 00:41:00;;;;;;;0.10;0.10;;;16.30;93.30;;;;;;4259367;27;20061;-60
2022/11/09 00:43:44;;;;;;;0.00;0.00;;;16.20;93.20;;;;;;4251651;27;20135;-60
2022/11/09 00:46:25;;;;;;;0.00;0.00;;;16.20;93.30;;;;;;4209724;28;20054;-60
2022/11/09 00:49:06;;;;;;;0.00;0.00;;;16.30;93.30;;;;;;4194443;28;20171;-60
2022/11/09 00:51:48;;;;;;;0.10;0.10;;;16.20;93.30;;;;;;4195035;28;20059;-60
2022/11/09 00:54:29;;;;;;;0.00;0.00;;;16.20;93.30;;;;;;4225191;27;20050;-60
2022/11/09 00:57:12;;;;;;;0.15;0.15;;;16.20;93.30;;;;;;4218503;28;20077;-60
2022/11/09 00:59:56;;;;;;;0.00;0.00;;;16.20;93.30;;;;;;4200313;28;20059;-60
2022/11/09 01:02:38;;;;;;;0.00;0.00;;;16.20;93.30;;;;;;4193317;28;20150;-60
2022/11/09 01:05:19;;;;;;;0.00;0.00;;;16.20;93.30;;;;;;4202173;28;20055;-60
2022/11/09 01:08:03;;;;;;;0.00;0.00;;;16.20;93.30;;;;;;4211162;28;20421;-60
2022/11/09 01:10:46;;;;;;;0.38;0.38;;;16.20;93.30;;;;;;4194434;28;20176;-60
2022/11/09 01:13:27;;;;;;;0.00;0.00;;;16.20;93.40;;;;;;4194087;28;20047;-60
2022/11/09 01:16:11;;;;;;;0.00;0.00;;;16.20;93.40;;;;;;4193907;28;20125;-60
2022/11/09 01:18:56;;;;;;;0.00;0.00;;;16.20;93.40;;;;;;4193805;28;20090;-60
2022/11/09 01:21:37;;;;;;;0.00;0.00;;;16.20;93.40;;;;;;4209815;28;20047;-60
2022/11/09 01:24:19;;;;;;;0.10;0.10;;;16.20;93.40;;;;;;4219107;27;20201;-60
2022/11/09 01:27:00;;;;;;;0.15;0.15;;;16.10;93.40;;;;;;4199327;28;20051;-60
2022/11/09 01:29:41;;;;;;;0.00;0.00;;;16.20;93.80;;;;;;4211189;28;20059;-60
2022/11/09 01:32:22;;;;;;;0.00;0.00;;;16.20;93.40;;;;;;4210028;28;20051;-61
2022/11/09 01:35:03;;;;;;;0.20;0.20;;;16.20;93.40;;;;;;4209666;28;20541;-60
2022/11/09 01:37:44;;;;;;;0.00;0.00;;;16.20;93.40;;;;;;4192888;28;20106;-60
2022/11/09 01:40:27;;;;;;;0.00;0.00;;;16.20;93.40;;;;;;4192212;28;20054;-60
2022/11/09 01:43:15;;;;;;;0.00;0.00;;;16.10;93.40;;;;;;4198947;28;20509;-60
2022/11/09 01:46:02;;;;;;;0.08;0.08;;;16.10;93.40;;;;;;4237066;27;20484;-60
2022/11/09 01:48:47;;;;;;;0.00;0.00;;;16.20;93.50;;;;;;4227263;28;20405;-61
2022/11/09 01:51:33;;;;;;;0.00;0.00;;;16.10;93.40;;;;;;4213669;28;20103;-60
2022/11/09 01:54:18;;;;;;;0.00;0.00;;;16.10;93.40;;;;;;4241944;27;20057;-60
2022/11/09 01:57:06;;;;;;;0.52;0.52;;;16.20;93.50;;;;;;4224363;27;20046;-60
2022/11/09 01:59:51;;;;;;;0.00;0.00;;;16.10;93.50;;;;;;4231023;27;20402;-60
2022/11/09 02:02:32;;;;;;;0.00;0.00;;;16.10;93.50;;;;;;4230859;27;20489;-60
2022/11/09 02:05:21;;;;;;;0.20;0.20;;;16.10;93.50;;;;;;4257839;27;20530;-60
2022/11/09 02:08:06;;;;;;;0.00;0.00;;;16.20;93.50;;;;;;4248220;27;20111;-60
2022/11/09 02:10:59;;;;;;;0.00;0.00;;;16.10;93.50;;;;;;4247895;27;20058;-60
2022/11/09 02:13:45;;;;;;;0.00;0.00;;;16.10;93.50;;;;;;4223853;27;20334;-61
2022/11/09 02:16:27;;;;;;;0.00;0.00;;;16.10;93.50;;;;;;4230631;27;20073;-61
2022/11/09 02:19:08;;;;;;;0.08;0.08;;;16.10;93.50;;;;;;4234617;27;20069;-60
2022/11/09 02:21:51;;;;;;;0.10;0.10;;;16.10;93.50;;;;;;4247985;27;20057;-60
2022/11/09 02:24:33;;;;;;;0.00;0.00;;;16.10;93.50;;;;;;4214011;28;20092;-61
2022/11/09 02:27:14;;;;;;;0.00;0.00;;;16.10;93.50;;;;;;4225607;27;20046;-60
2022/11/09 02:29:58;;;;;;;0.00;0.00;;;16.10;93.50;;;;;;4242903;27;20139;-61
2022/11/09 02:32:39;;;;;;;0.00;0.00;;;16.10;93.50;;;;;;4208612;28;20517;-60
2022/11/09 02:35:19;;;;;;;0.00;0.00;;;16.10;93.50;;;;;;4208487;28;20055;-61
2022/11/09 02:38:01;;;;;;;0.00;0.00;;;16.10;93.50;;;;;;4210027;28;20611;-60
2022/11/09 02:40:45;;;;;;;0.00;0.00;;;16.10;93.50;;;;;;4213679;28;20292;-60
2022/11/09 02:43:27;;;;;;;0.00;0.00;;;16.10;93.50;;;;;;4225828;27;20147;-61
2022/11/09 02:46:07;;;;;;;0.00;0.00;;;16.10;93.60;;;;;;4257916;27;20053;-60
2022/11/09 02:48:49;;;;;;;0.00;0.00;;;16.10;93.60;;;;;;4247181;27;20590;-60
2022/11/09 02:51:31;;;;;;;0.00;0.00;;;16.10;93.50;;;;;;4247193;27;20090;-60
2022/11/09 02:54:13;;;;;;;0.77;0.73;;;16.10;93.50;;;;;;4213363;27;20054;-60
2022/11/09 02:56:54;;;;;;;0.00;0.00;;;16.10;93.50;;;;;;4231879;27;20098;-61
2022/11/09 02:59:35;;;;;;;0.00;0.00;;;16.00;93.50;;;;;;4213300;27;20437;-60
2022/11/09 03:02:18;;;;;;;0.00;0.00;;;16.10;93.60;;;;;;4216746;27;20406;-60
2022/11/09 03:04:59;;;;;;;0.00;0.00;;;16.00;93.50;;;;;;4225172;28;20124;-60
2022/11/09 03:07:40;;;;;;;0.08;0.08;;;16.00;93.50;;;;;;4228429;27;20066;-60
2022/11/09 03:10:23;;;;;;;0.00;0.00;;;16.00;93.60;;;;;;4230248;27;20058;-59
2022/11/09 03:13:04;;;;;;;0.00;0.00;;;16.10;93.60;;;;;;4243313;27;20046;-60
2022/11/09 03:15:45;;;;;;;0.00;0.00;;;16.00;93.50;;;;;;4225318;28;20046;-60
2022/11/09 03:18:26;;;;;;;0.00;0.00;;;16.00;93.60;;;;;;4224719;28;20076;-60
2022/11/09 03:21:07;;;;;;;0.00;0.00;;;16.10;93.60;;;;;;4229962;27;20088;-60
2022/11/09 03:23:49;;;;;;;0.00;0.00;;;16.00;93.60;;;;;;4225361;27;20067;-60
2022/11/09 03:26:31;;;;;;;0.00;0.00;;;16.00;93.60;;;;;;4223033;27;20131;-60
2022/11/09 03:29:12;;;;;;;0.10;0.10;;;16.00;93.60;;;;;;4220552;28;20051;-60
2022/11/09 03:31:53;;;;;;;0.00;0.00;;;16.00;93.60;;;;;;4212254;28;20126;-60
2022/11/09 03:34:34;;;;;;;0.00;0.00;;;16.00;93.60;;;;;;4229281;27;20053;-60
2022/11/09 03:37:15;;;;;;;0.00;0.00;;;16.00;93.60;;;;;;4212512;28;20054;-69
2022/11/09 03:39:56;;;;;;;0.10;0.10;;;16.00;93.50;;;;;;4227881;27;20140;-64
2022/11/09 03:42:42;;;;;;;;;;;16.00;93.50;;;;;;4223626;27;20047;-60
2022/11/09 03:45:23;;;;;;;0.00;0.00;;;16.00;93.50;;;;;;4213168;28;20408;-60
2022/11/09 03:48:05;;;;;;;0.00;0.00;;;16.00;93.50;;;;;;4259204;27;20054;-60
2022/11/09 03:50:46;;;;;;;0.00;0.00;;;16.00;93.50;;;;;;4259029;27;20065;-60
2022/11/09 03:53:27;;;;;;;0.00;0.00;;;16.00;93.60;;;;;;4258024;27;20549;-60
2022/11/09 03:56:08;;;;;;;0.00;0.00;;;16.00;93.60;;;;;;4241715;28;20054;-60
2022/11/09 03:58:50;;;;;;;0.00;0.00;;;16.00;93.60;;;;;;4229713;28;20443;-60
2022/11/09 04:01:31;;;;;;;0.63;0.63;;;16.00;93.50;;;;;;4229591;27;20054;-60
2022/11/09 04:04:12;;;;;;;0.20;0.20;;;16.00;93.60;;;;;;4259191;27;20054;-60
2022/11/09 04:06:53;;;;;;;0.00;0.00;;;16.00;93.60;;;;;;4208060;28;20059;-60
2022/11/09 04:09:34;;;;;;;0.00;0.00;;;15.90;93.60;;;;;;4225188;27;20058;-60
2022/11/09 04:12:15;;;;;;;0.00;0.00;;;16.00;93.60;;;;;;4251259;27;20183;-60
2022/11/09 04:14:57;;;;;;;0.00;0.00;;;15.90;93.50;;;;;;4259571;27;20049;-60
2022/11/09 04:17:39;;;;;;;0.00;0.00;;;15.90;93.50;;;;;;4262655;27;20079;-60
2022/11/09 04:20:20;;;;;;;0.00;0.00;;;16.00;93.60;;;;;;4249465;27;20058;-60
2022/11/09 04:23:03;;;;;;;0.73;0.73;;;16.00;93.50;;;;;;4231504;27;20076;-60
2022/11/09 04:25:44;;;;;;;0.00;0.00;;;16.00;93.50;;;;;;4228401;28;20058;-59
2022/11/09 04:28:31;;;;;;;0.00;0.00;;;15.90;93.50;;;;;;4245254;27;20054;-59
2022/11/09 04:31:13;;;;;;;0.00;0.00;;;15.90;93.50;;;;;;4236686;27;20049;-60
2022/11/09 04:33:54;;;;;;;0.20;0.20;;;16.00;93.60;;;;;;4253448;27;20508;-60
2022/11/09 04:36:34;;;;;;;0.00;0.00;;;15.90;93.50;;;;;;4244567;27;20066;-60
2022/11/09 04:39:16;;;;;;;0.00;0.00;;;15.90;93.60;;;;;;4228359;28;20096;-60
2022/11/09 04:41:57;;;;;;;0.00;0.00;;;15.90;93.60;;;;;;4242131;27;20600;-60
2022/11/09 04:44:37;;;;;;;0.00;0.00;;;15.90;93.60;;;;;;4262076;27;20046;-60
2022/11/09 04:47:20;;;;;;;0.00;0.00;;;15.90;93.60;;;;;;4258515;27;20307;-60
2022/11/09 04:50:00;;;;;;;0.00;0.00;;;15.90;93.60;;;;;;4244712;27;20484;-60
2022/11/09 04:52:41;;;;;;;0.20;0.20;;;15.90;93.60;;;;;;4211179;27;20058;-60
2022/11/09 04:55:22;;;;;;;0.00;0.00;;;15.90;93.60;;;;;;4211336;28;20039;-60
2022/11/09 04:58:03;;;;;;;0.00;0.00;;;15.90;93.60;;;;;;4243807;27;20513;-59
2022/11/09 05:00:44;;;;;;;0.00;0.00;;;15.90;94.00;;;;;;4214990;27;20043;-60
2022/11/09 05:03:26;;;;;;;0.10;0.10;;;15.90;93.60;;;;;;4244950;27;20123;-60
2022/11/09 05:09:04;;;;;;;0.00;0.00;;;15.90;93.60;;;;;;4244505;27;20054;-60
2022/11/09 05:11:44;;;;;;;0.00;0.00;;;15.90;93.60;;;;;;4235830;27;20194;-59
2022/11/09 05:14:25;;;;;;;0.00;0.00;;;15.90;93.60;;;;;;4244502;27;20095;-60
2022/11/09 05:17:07;;;;;;;0.00;0.00;;;15.90;93.60;;;;;;4242529;27;20152;-60
2022/11/09 05:19:49;;;;;;;0.45;0.45;;;15.90;93.60;;;;;;4243756;27;20181;-60
2022/11/09 05:25:38;;;;;;;0.05;0.05;;;15.90;93.50;;;;;;4243968;27;20050;-60
2022/11/09 05:28:18;;;;;;;0.00;0.00;;;15.90;93.50;;;;;;4256579;27;20176;-60
2022/11/09 05:30:59;;;;;;;0.00;0.00;;;15.90;93.50;;;;;;4252410;27;20120;-60
2022/11/09 05:33:40;;;;;;;0.00;0.00;;;15.90;93.50;;;;;;4242599;27;20119;-60
2022/11/09 05:36:23;;;;;;;0.00;0.00;;;15.90;93.50;;;;;;4256676;27;20042;-60
2022/11/09 05:39:04;;;;;;;0.00;0.00;;;15.90;93.50;;;;;;4226063;28;20065;-60
2022/11/09 05:41:45;;;;;;;0.00;0.00;;;15.90;93.50;;;;;;4243453;27;20152;-60
2022/11/09 05:44:26;;;;;;;0.00;0.00;;;15.80;93.40;;;;;;4243692;27;20446;-60
2022/11/09 05:47:07;;;;;;;0.00;0.00;;;15.80;93.50;;;;;;4243749;27;20050;-60
2022/11/09 05:49:48;;;;;;;0.00;0.00;;;15.80;93.40;;;;;;4227010;28;20104;-60
2022/11/09 05:52:30;;;;;;;0.00;0.00;;;15.80;93.40;;;;;;4253401;27;20610;-60
2022/11/09 05:55:11;;;;;;;0.00;0.00;;;15.80;93.40;;;;;;4247848;27;20500;-60
2022/11/09 05:57:52;;;;;;;0.00;0.00;;;15.80;93.40;;;;;;4245697;27;20049;-60
2022/11/09 06:00:33;;;;;;;0.00;0.00;;;15.80;93.40;;;;;;4234649;27;20058;-60
2022/11/09 06:03:13;;;;;;;0.00;0.00;;;15.80;93.60;;;;;;4243345;27;20046;-60
2022/11/09 06:05:54;;;;;;;0.10;0.10;;;15.80;93.40;;;;;;4250227;27;20062;-60
2022/11/09 06:08:37;;;;;;;0.00;0.00;;;15.80;93.80;;;;;;4260429;27;20509;-60
2022/11/09 06:11:18;;;;;;;0.00;0.00;;;15.80;93.40;;;;;;4244815;27;20066;-60
2022/11/09 06:14:03;;;;;;;0.00;0.00;;;15.80;93.20;;;;;;4226670;28;20042;-60
2022/11/09 06:16:44;;;;;;;0.00;0.00;;;15.80;93.40;;;;;;4241874;27;20054;-61
2022/11/09 06:19:25;;;;;;;0.00;0.00;;;15.80;93.40;;;;;;4241782;27;20451;-60
2022/11/09 06:22:06;;;;;;;0.00;0.00;;;15.80;93.40;;;;;;4242675;27;20115;-60
2022/11/09 06:24:49;;;;;;;0.00;0.00;;;15.80;93.40;;;;;;4242846;27;20110;-60
2022/11/09 06:27:30;;;;;;;0.00;0.00;;;15.80;93.40;;;;;;4231474;27;20062;-60
2022/11/09 06:30:12;;;;;;;0.00;0.00;;;15.80;93.40;;;;;;4236789;27;20059;-60
2022/11/09 06:32:58;;;;;;;0.10;0.10;;;15.80;93.40;;;;;;4242932;27;20131;-60
2022/11/09 06:35:39;;;;;;;0.00;0.00;;;15.80;93.40;;;;;;4257091;27;20130;-59
2022/11/09 06:38:20;;;;;;;0.10;0.10;;;15.80;93.70;;;;;;4259894;27;20049;-58
2022/11/09 06:41:02;;;;;;;0.00;0.00;;;15.90;93.80;;;;;;4247202;27;20066;-59
2022/11/09 06:43:43;;;;;;;0.38;0.38;;;15.90;93.70;;;;;;4225564;28;20051;-57
2022/11/09 06:46:24;;;;;;;0.05;0.05;;;15.90;93.60;;;;;;4237386;27;20616;-59
2022/11/09 06:49:05;;;;;;;0.00;0.00;;;15.90;93.50;;;;;;4242223;27;20057;-58
2022/11/09 06:51:46;;;;;;;0.00;0.00;;;15.90;93.50;;;;;;4231343;27;20092;-59
2022/11/09 06:54:27;;;;;;;0.00;0.00;;;15.90;93.40;;;;;;4239740;27;20072;-59
2022/11/09 06:57:09;;;;;;;0.00;0.00;;;15.90;93.30;;;;;;4232610;27;20595;-59
2022/11/09 06:59:49;;;;;;;0.00;0.00;;;15.90;93.20;;;;;;4223319;27;20050;-59
2022/11/09 07:02:30;;;;;;;0.00;0.00;;;15.90;93.10;;;;;;4218759;27;20061;-59
2022/11/09 07:05:11;;;;;;;0.00;0.00;;;15.90;93.00;;;;;;4240863;27;20128;-59
2022/11/09 07:07:52;;;;;;;0.30;0.30;;;15.90;92.90;;;;;;4239161;27;20072;-59
2022/11/09 07:10:33;;;;;;;0.00;0.00;;;15.90;92.80;;;;;;4225845;27;20054;-59
2022/11/09 07:13:15;;;;;;;0.00;0.00;;;15.80;92.60;;;;;;4225220;27;20613;-59
2022/11/09 07:15:55;;;;;;;0.00;0.00;;;15.80;92.50;;;;;;4238098;27;20613;-59
2022/11/09 07:18:37;;;;;;;6.63;2.92;;;15.80;92.40;;;;;;4241747;27;20058;-60
2022/11/09 07:21:18;;;;;;;0.08;0.08;;;15.80;92.30;;;;;;4224875;27;20496;-59
2022/11/09 07:23:59;;;;;;;0.00;0.00;;;15.80;92.30;;;;;;4229989;27;20046;-59
2022/11/09 07:26:39;;;;;;;0.00;0.00;;;15.80;92.20;;;;;;4240175;27;20179;-59
2022/11/09 07:29:22;;;;;;;0.10;0.10;;;15.80;92.20;;;;;;4240652;27;20050;-59
2022/11/09 07:32:03;;;;;;;0.05;0.05;;;15.80;92.10;;;;;;4242118;27;20452;-59
2022/11/09 07:34:45;;;;;;;0.00;0.00;;;15.80;92.00;;;;;;4248883;27;20046;-58
2022/11/09 07:37:26;;;;;;;0.00;0.00;;;15.80;92.00;;;;;;4259393;27;20381;-59
2022/11/09 07:40:08;;;;;;;0.00;0.00;;;15.70;91.90;;;;;;4259286;27;20180;-58
2022/11/09 07:42:49;;;;;;;0.00;0.00;;;15.70;91.90;;;;;;4259087;27;20511;-59
2022/11/09 07:45:33;;;;;;;0.00;0.00;;;15.70;92.20;;;;;;4244847;27;20046;-59
2022/11/09 07:48:14;;;;;;;0.00;0.00;;;15.70;91.80;;;;;;4225496;28;20494;-59
2022/11/09 07:50:56;;;;;;;0.00;0.00;;;15.70;91.90;;;;;;4239558;27;20054;-58
2022/11/09 07:53:37;;;;;;;0.00;0.00;;;15.70;91.90;;;;;;4238755;27;20046;-59
2022/11/09 07:56:18;;;;;;;0.00;0.00;;;15.70;91.90;;;;;;4210818;28;20047;-59
2022/11/09 07:58:59;;;;;;;0.57;0.57;;;15.70;91.90;;;;;;4222854;28;20143;-59
2022/11/09 08:01:41;;;;;;;0.00;0.00;;;15.70;92.00;;;;;;4223172;27;20447;-59
2022/11/09 08:04:22;;;;;;;0.00;0.00;;;15.70;92.00;;;;;;4222326;27;20059;-59
2022/11/09 08:07:03;;;;;;;0.00;0.00;;;15.70;92.00;;;;;;4238654;27;20550;-59
2022/11/09 08:09:44;;;;;;;0.00;0.00;;;15.70;92.00;;;;;;4240040;27;20127;-59
2022/11/09 08:12:26;;;;;;;0.00;0.00;;;15.70;92.00;;;;;;4239210;27;20385;-59
2022/11/09 08:15:08;;;;;;;0.00;0.00;;;15.70;92.10;;;;;;4239289;27;20084;-59
2022/11/09 08:17:50;;;;;;;0.00;0.00;;;15.70;92.00;;;;;;4239593;27;20128;-59
2022/11/09 08:20:31;;;;;;;0.00;0.00;;;15.70;92.00;;;;;;4237615;27;20053;-59
2022/11/09 08:23:13;;;;;;;0.00;0.00;;;15.70;92.40;;;;;;4225034;27;20050;-59
2022/11/09 08:25:54;;;;;;;0.00;0.00;;;15.70;92.00;;;;;;4222707;27;20097;-59
2022/11/09 08:28:35;;;;;;;0.00;0.00;;;15.70;92.00;;;;;;4222102;27;20051;-59
2022/11/09 08:31:16;;;;;;;0.00;0.00;;;15.70;92.00;;;;;;4222935;28;20062;-59
2022/11/09 08:33:58;;;;;;;0.00;0.00;;;15.70;92.10;;;;;;4237258;27;20050;-59
2022/11/09 08:36:39;;;;;;;0.40;0.40;;;15.70;92.10;;;;;;4237305;27;20493;-59
2022/11/09 08:39:21;;;;;;;0.00;0.00;;;15.70;92.50;;;;;;4234533;27;20054;-59
2022/11/09 08:42:02;;;;;;;0.20;0.20;;;15.70;92.10;;;;;;4226980;27;20164;-59
2022/11/09 08:44:43;;;;;;;0.00;0.00;;;15.70;92.00;;;;;;4238688;27;20196;-59
2022/11/09 08:47:24;;;;;;;0.15;0.15;;;15.70;92.00;;;;;;4238090;27;20065;-59
2022/11/09 08:50:08;;;;;;;0.00;0.00;;;15.70;92.00;;;;;;4226040;27;20386;-59
2022/11/09 08:52:49;;;;;;;0.00;0.00;;;15.70;92.00;;;;;;4238930;27;20061;-59
2022/11/09 08:55:31;;;;;;;0.00;0.00;;;15.70;92.00;;;;;;4239054;27;20480;-59
2022/11/09 08:58:12;;;;;;;0.00;0.00;;;15.70;92.00;;;;;;4239548;27;20139;-59
2022/11/09 09:00:53;;;;;;;0.00;0.00;;;15.70;92.00;;;;;;4221935;27;20062;-59
2022/11/09 09:03:33;;;;;;;0.00;0.00;;;15.80;92.10;;;;;;4241050;27;20476;-59
2022/11/09 09:06:16;;;;;;;0.00;0.00;;;15.80;92.10;;;;;;4241709;27;20047;-60
2022/11/09 09:08:57;;;;;;;0.52;0.52;;;15.80;92.00;;;;;;4242008;27;20099;-59
2022/11/09 09:11:38;;;;;;;0.08;0.08;;;15.80;92.10;;;;;;4241043;27;20504;-59
2022/11/09 09:14:19;;;;;;;0.00;0.00;;;15.80;92.10;;;;;;4241997;27;20192;-59
2022/11/09 09:17:00;;;;;;;0.00;0.00;;;15.80;92.50;;;;;;4241702;27;20195;-59
2022/11/09 09:19:41;;;;;;;0.00;0.00;;;15.80;92.30;;;;;;4241583;27;20099;-60
2022/11/09 09:22:27;;;;;;;0.00;0.00;;;15.80;92.10;;;;;;4227350;27;20038;-62
2022/11/09 09:25:08;;;;;;;0.00;0.00;;;15.80;92.20;;;;;;4224985;27;20062;-64
2022/11/09 09:27:49;;;;;;;0.10;0.10;;;15.80;92.10;;;;;;4241260;27;20049;-63
2022/11/09 09:30:30;;;;;;;0.30;0.30;;;15.80;91.90;;;;;;4231913;27;20111;-59
2022/11/09 09:33:11;;;;;;;0.00;0.00;;;15.90;91.80;;;;;;4239888;27;20054;-60
2022/11/09 09:35:55;;;;;;;0.00;0.00;;;15.90;91.70;;;;;;4224082;28;20181;-60
2022/11/09 09:38:37;;;;;;;0.22;0.22;;;15.90;91.60;;;;;;4241955;27;20062;-60
2022/11/09 09:41:22;;;;;;;0.05;0.05;;;15.90;91.50;;;;;;4240864;27;20057;-59
2022/11/09 09:44:16;;;;;;;0.10;0.10;;;15.80;91.50;;;;;;4241762;27;20054;-60
2022/11/09 09:47:06;;;;;;;0.00;0.00;;;15.80;91.40;;;;;;4240754;27;20049;-59
2022/11/09 09:49:53;;;;;;;0.00;0.00;;;15.90;91.80;;;;;;4241343;27;20054;-60
2022/11/09 09:52:40;;;;;;;2.90;1.65;;;15.90;91.30;;;;;;4228422;27;20408;-59
2022/11/09 09:55:34;;;;;;;0.00;0.00;;;15.90;91.20;;;;;;4240792;27;20058;-59
2022/11/09 09:58:20;;;;;;;0.20;0.20;;;15.80;91.20;;;;;;4241281;27;20611;-59
2022/11/09 10:01:07;;;;;;;0.00;0.00;;;15.80;91.10;;;;;;4241122;27;20484;-59
2022/11/09 10:03:49;;;;;;;0.10;0.10;;;15.80;91.00;;;;;;4241348;27;20065;-59
2022/11/09 10:06:40;;;;;;;0.00;0.00;;;15.90;91.00;;;;;;4241810;27;20058;-60
2022/11/09 10:09:32;;;;;;;0.00;0.00;;;15.80;90.90;;;;;;4239953;27;20451;-59
2022/11/09 10:12:18;;;;;;;;;;;15.80;90.90;;;;;;4239833;27;20054;-59
2022/11/09 10:15:11;;;;;;;0.00;0.00;;;15.80;90.90;;;;;;4232562;27;19931;-59
2022/11/09 10:18:03;;;;;;;0.65;0.65;;;15.80;90.80;;;;;;4223276;27;20054;-60
2022/11/09 10:20:55;;;;;;;0.43;0.43;;;15.80;90.80;;;;;;4240520;27;20103;-60
2022/11/09 10:23:43;;;;;;;0.00;0.00;;;15.80;90.80;;;;;;4240681;27;20053;-57
2022/11/09 10:26:31;;;;;;;0.00;0.00;;;15.80;90.70;;;;;;4240699;27;20097;-59
2022/11/09 10:29:22;;;;;;;0.00;0.00;;;15.80;90.80;;;;;;4241463;27;20054;-59
2022/11/09 10:32:14;;;;;;;0.00;0.00;;;15.90;90.90;;;;;;4241030;27;20061;-60
2022/11/09 10:35:00;;;;;;;0.15;0.15;;;15.90;90.90;;;;;;4240517;27;20508;-59
2022/11/09 10:37:45;;;;;;;0.00;0.00;;;15.90;90.90;;;;;;4221298;27;20759;-59
2022/11/09 10:40:30;;;;;;;0.00;0.00;;;15.90;90.90;;;;;;4240622;27;20530;-59
2022/11/09 10:43:30;;;;;;;0.05;0.05;;;15.90;90.90;;;;;;4240351;27;20054;-60
2022/11/09 10:46:31;;;;;;;0.00;0.00;;;15.90;90.90;;;;;;4240083;27;20054;-60
2022/11/09 10:49:32;;;;;;;0.00;0.00;;;15.90;91.30;;;;;;4240237;27;20504;-60
2022/11/09 10:52:38;;;;;;;0.00;0.00;;;15.90;91.00;;;;;;4239168;27;20082;-60
2022/11/09 10:55:54;;;;;;;0.00;0.00;;;15.90;91.10;;;;;;4238944;27;20073;-60
2022/11/09 10:58:54;;;;;;;0.00;0.00;;;16.00;91.20;;;;;;4239649;27;20080;-60
2022/11/09 11:01:55;;;;;;;0.00;0.00;;;16.00;91.20;;;;;;4240302;27;20053;-60
2022/11/09 11:05:25;;;;;;;0.00;0.00;;;16.10;91.10;;;;;;4240476;27;20050;-59
2022/11/09 11:08:34;;;;;;;0.00;0.00;;;16.10;91.10;;;;;;4240108;27;20124;-61
2022/11/09 11:11:35;;;;;;;0.00;0.00;;;16.10;91.00;;;;;;4238635;27;20058;-60
2022/11/09 11:14:42;;;;;;;0.00;0.00;;;16.10;91.00;;;;;;4222947;27;20062;-60
2022/11/09 11:17:44;;;;;;;0.00;0.00;;;16.10;91.00;;;;;;4240106;27;20062;-60
2022/11/09 11:20:44;;;;;;;;;;;16.10;91.00;;;;;;4223986;27;20077;-60
2022/11/09 11:23:44;;;;;;;0.20;0.20;;;16.10;91.00;;;;;;4240401;27;20787;-61
2022/11/09 11:26:52;;;;;;;0.45;0.45;;;16.10;91.00;;;;;;4239398;27;20061;-61
2022/11/09 11:29:59;;;;;;;0.00;0.00;;;16.10;91.00;;;;;;4239044;27;20685;-60
2022/11/09 11:33:01;;;;;;;0.00;0.00;;;16.00;91.40;;;;;;4239302;27;20135;-61
2022/11/09 11:36:11;;;;;;;0.52;0.52;;;16.00;91.00;;;;;;4235430;27;20469;-61
2022/11/09 11:39:18;;;;;;;0.10;0.10;;;16.00;91.10;;;;;;4220586;27;20066;-61
2022/11/09 11:42:59;;;;;;;0.00;0.00;;;16.00;91.10;;;;;;4222764;27;20054;-61
2022/11/09 11:46:08;;;;;;;0.00;0.00;;;16.00;91.10;;;;;;4221482;27;20045;-61
2022/11/09 11:49:36;;;;;;;0.00;0.00;;;16.00;91.10;;;;;;4229754;27;20141;-61
2022/11/09 11:52:49;;;;;;;0.15;0.15;;;16.00;91.20;;;;;;4222602;28;20577;-61
2022/11/09 11:56:05;;;;;;;0.00;0.00;;;16.00;91.20;;;;;;4238995;27;20054;-61
2022/11/09 11:59:46;;;;;;;0.00;0.00;;;16.00;91.60;;;;;;4239547;27;20893;-60
2022/11/09 12:03:10;;;;;;;3.63;1.55;;;16.00;91.20;;;;;;4207128;27;20088;-60
2022/11/09 12:06:33;;;;;;;0.00;0.00;;;16.00;91.20;;;;;;4238370;27;20107;-60
2022/11/09 12:09:42;;;;;;;0.10;0.10;;;16.00;91.30;;;;;;4239249;27;20066;-60
2022/11/09 12:12:51;;;;;;;7.03;2.90;;;16.00;91.30;;;;;;4238997;27;20081;-60
2022/11/09 12:15:59;;;;;;;2.88;0.90;;;16.00;91.20;;;;;;4238516;27;20062;-60
2022/11/09 12:19:20;;;;;;;0.00;0.00;;;16.00;91.20;;;;;;4221717;27;20126;-60
2022/11/09 12:22:39;;;;;;;0.20;0.20;;;16.00;91.10;;;;;;4221308;27;20046;-60
2022/11/09 12:25:46;;;;;;;0.28;0.28;;;16.00;91.10;;;;;;4221811;28;20058;-60
2022/11/09 12:29:04;;;;;;;0.00;0.00;;;16.00;91.20;;;;;;4225849;27;20116;-60
2022/11/09 12:32:17;;;;;;;0.00;0.00;;;16.00;91.20;;;;;;4238883;27;20074;-60
2022/11/09 12:35:24;;;;;;;0.47;0.47;;;16.00;91.20;;;;;;4236980;27;20154;-60
2022/11/09 12:38:29;;;;;;;0.00;0.00;;;16.00;91.60;;;;;;4241804;27;20054;-60
2022/11/09 12:41:34;;;;;;;0.00;0.00;;;16.00;91.30;;;;;;4241737;27;20099;-59
2022/11/09 12:44:39;;;;;;;0.00;0.00;;;16.00;91.30;;;;;;4238494;27;20085;-60
2022/11/09 12:47:42;;;;;;;1.00;1.00;;;16.00;91.30;;;;;;4230435;27;20054;-60
2022/11/09 12:50:42;;;;;;;0.20;0.20;;;16.00;91.40;;;;;;4240613;27;20058;-60
2022/11/09 12:53:43;;;;;;;0.00;0.00;;;16.00;91.40;;;;;;4241882;27;20481;-60
2022/11/09 12:56:51;;;;;;;0.25;0.25;;;16.00;91.40;;;;;;4241643;27;20525;-60
2022/11/09 12:59:52;;;;;;;0.55;0.55;;;16.00;91.40;;;;;;4241194;27;20078;-60
2022/11/09 13:02:55;;;;;;;0.00;0.00;;;16.00;91.40;;;;;;4242168;27;20058;-60
2022/11/09 13:06:16;;;;;;;0.10;0.10;;;16.00;91.40;;;;;;4229488;27;20090;-60
2022/11/09 13:09:24;;;;;;;0.00;0.00;;;16.00;91.40;;;;;;4242065;27;20074;-60
2022/11/09 13:12:32;;;;;;;0.40;0.40;;;16.00;91.30;;;;;;4241545;27;20050;-60
2022/11/09 13:15:33;;;;;;;0.00;0.00;;;16.00;91.30;;;;;;4242072;27;20054;-60
2022/11/09 13:18:50;;;;;;;0.08;0.08;;;16.00;91.40;;;;;;4241756;27;20176;-60
2022/11/09 13:21:49;;;;;;;0.70;0.70;;;16.00;91.40;;;;;;4241372;27;20136;-60
2022/11/09 13:24:54;;;;;;;0.98;0.68;;;16.00;91.30;;;;;;4241631;27;20591;-60
2022/11/09 13:27:54;;;;;;;0.10;0.10;;;16.00;91.40;;;;;;4241200;27;20072;-59
2022/11/09 13:30:56;;;;;;;0.00;0.00;;;16.00;91.40;;;;;;4240090;27;20074;-60
2022/11/09 13:34:37;;;;;;;0.32;0.32;;;16.00;91.40;;;;;;4240865;27;20082;-60
2022/11/09 13:37:48;;;;;;;0.00;0.00;;;16.00;91.40;;;;;;4223086;28;20051;-60
2022/11/09 13:40:49;;;;;;;0.05;0.05;;;16.00;91.50;;;;;;4241232;27;20121;-60
2022/11/09 13:44:08;;;;;;;0.50;0.50;;;16.00;91.50;;;;;;4239259;27;20054;-60
2022/11/09 13:47:21;;;;;;;0.00;0.00;;;16.00;91.50;;;;;;4190866;28;20055;-60
2022/11/09 13:50:24;;;;;;;0.00;0.00;;;16.00;91.50;;;;;;4191320;28;20135;-60
2022/11/09 13:53:27;;;;;;;;;;;16.00;91.50;;;;;;4207473;27;20083;-60
2022/11/09 13:56:34;;;;;;;11.00;1.67;;;16.00;91.50;;;;;;4190577;28;19936;-60
2022/11/09 13:59:38;;;;;;;0.00;0.00;;;16.00;91.50;;;;;;4191011;28;20540;-60
2022/11/09 14:02:38;;;;;;;1.02;1.02;;;16.00;91.60;;;;;;4191392;28;20407;-60
2022/11/09 14:05:38;;;;;;;0.17;0.17;;;16.00;91.50;;;;;;4189664;28;20419;-60
2022/11/09 14:08:42;;;;;;;0.08;0.08;;;16.00;91.60;;;;;;4207028;27;20143;-60
2022/11/09 14:12:13;;;;;;;0.00;0.00;;;16.00;91.60;;;;;;4190491;28;20106;-60
2022/11/09 14:15:32;;;;;;;0.00;0.00;;;16.00;91.50;;;;;;4204645;27;20494;-60
2022/11/09 14:18:45;;;;;;;0.30;0.30;;;16.00;91.50;;;;;;4207253;27;20101;-60
2022/11/09 14:21:46;;;;;;;0.20;0.20;;;16.00;91.50;;;;;;4207552;28;20120;-61
2022/11/09 14:24:46;;;;;;;0.00;0.00;;;16.00;91.50;;;;;;4207491;27;20101;-61
2022/11/09 14:27:50;;;;;;;0.00;0.00;;;16.00;91.50;;;;;;4174796;28;20101;-60
2022/11/09 14:30:50;;;;;;;0.00;0.00;;;16.00;91.50;;;;;;4206978;27;20439;-60
2022/11/09 14:34:00;;;;;;;0.00;0.00;;;16.00;91.60;;;;;;4206913;27;20198;-60
2022/11/09 14:37:00;;;;;;;0.30;0.30;;;16.00;91.50;;;;;;4206404;27;20136;-60
2022/11/09 14:40:04;;;;;;;0.10;0.10;;;16.00;91.60;;;;;;4190141;28;20399;-60
2022/11/09 14:43:24;;;;;;;0.08;0.08;;;16.00;91.50;;;;;;4188287;28;20056;-60
2022/11/09 14:46:25;;;;;;;0.75;0.57;;;16.00;91.50;;;;;;4211222;28;20070;-59